WAOO/BDJ METAR and TAF weather

Enter ICAO airport designator
Station Type Date Time Source
WAOO METAR 2023/01/30 11:30 UTC NOAA

WAOO 301130Z 21003KT 9999 FEW017 26/24 Q1008 NOSIG


Station Type Date Time Source
WAOO Decoded METAR 2023/01/30 11:30 UTC NOAA

Station name not available
Jan 30, 2023 - 06:30 AM EST / 2023.01.30 1130 UTC
Wind: from the SSW (210 degrees) at 3 MPH (3 KT):0
Visibility: greater than 7 mile(s):0
Sky conditions: mostly clear
Temperature: 78 F (26 C)
Dew Point: 75 F (24 C)
Relative Humidity: 88%
Pressure (altimeter): 29.77 in. Hg (1008 hPa)
ob: WAOO 301130Z 21003KT 9999 FEW017 26/24 Q1008 NOSIG
cycle: 11

Station Type Date Time Source
WAOO TAF 2023/01/30 06:00 UTC NOAA

TAF WAOO 300500Z 3006/3106 21006KT 9999 SCT017=

Example: see airport list